Baddeck, Canada
Current Conditions -  °F | °C
As of 10:00 PM on Friday 28 Nov 2014 (Local Time) from CYQY Reporting Station
Snow Showers Snow Showers  
Wind Chill: 21°   Ceiling: 2900
Heat Index: 30°   Visibility: 10mi
Dew Point: 25°   Wind: 12mph
Humidity: 80%   Direction: 340°NNW
Pressure: 29.86"   Gusts: NA
Location:  46.1°N, 60.75°W
Report Text: CYQY 290200Z 34010KT 10SM -SHSN OVC029 M01/M04 A2986 RMK SC8 SLP113
Loading
Personal Weather Stations






























Interactive Weather Map New forecast layout! Learn more

10-Day Weather Forecast

Advertisements
Track Severe Weather on mobile